sensor_id;sensor_type;location;lat;lon;timestamp;P1;durP1;ratioP1;P2;durP2;ratioP2
48006;SDS011;33771;48.180;11.400;2022-09-01T00:01:13;32.60;;;27.38;;
48006;SDS011;33771;48.180;11.400;2022-09-01T00:03:44;36.00;;;28.90;;
48006;SDS011;33771;48.180;11.400;2022-09-01T00:06:16;36.47;;;27.98;;
48006;SDS011;33771;48.180;11.400;2022-09-01T00:08:47;37.63;;;28.00;;
48006;SDS011;33771;48.180;11.400;2022-09-01T00:11:13;39.63;;;31.50;;
48006;SDS011;33771;48.180;11.400;2022-09-01T00:13:39;38.17;;;30.95;;
48006;SDS011;33771;48.180;11.400;2022-09-01T00:16:05;44.92;;;33.15;;
48006;SDS011;33771;48.180;11.400;2022-09-01T00:18:31;38.30;;;29.95;;
48006;SDS011;33771;48.180;11.400;2022-09-01T00:20:57;34.17;;;29.67;;
48006;SDS011;33771;48.180;11.400;2022-09-01T00:23:25;35.55;;;28.50;;
48006;SDS011;33771;48.180;11.400;2022-09-01T00:25:51;35.53;;;29.77;;
48006;SDS011;33771;48.180;11.400;2022-09-01T00:28:17;36.28;;;28.42;;
48006;SDS011;33771;48.180;11.400;2022-09-01T00:30:43;33.90;;;27.45;;
48006;SDS011;33771;48.180;11.400;2022-09-01T00:33:09;33.17;;;26.55;;
48006;SDS011;33771;48.180;11.400;2022-09-01T00:35:35;36.03;;;28.02;;
48006;SDS011;33771;48.180;11.400;2022-09-01T00:38:00;34.53;;;28.75;;
48006;SDS011;33771;48.180;11.400;2022-09-01T00:40:26;33.13;;;27.02;;
48006;SDS011;33771;48.180;11.400;2022-09-01T00:42:51;33.42;;;28.20;;
48006;SDS011;33771;48.180;11.400;2022-09-01T00:45:18;37.33;;;28.95;;
48006;SDS011;33771;48.180;11.400;2022-09-01T00:47:45;34.63;;;28.10;;
48006;SDS011;33771;48.180;11.400;2022-09-01T00:50:12;36.97;;;29.38;;
48006;SDS011;33771;48.180;11.400;2022-09-01T00:52:45;38.00;;;29.50;;
48006;SDS011;33771;48.180;11.400;2022-09-01T00:55:15;35.28;;;28.92;;
48006;SDS011;33771;48.180;11.400;2022-09-01T00:57:45;35.30;;;29.23;;
48006;SDS011;33771;48.180;11.400;2022-09-01T01:00:14;35.90;;;29.42;;
48006;SDS011;33771;48.180;11.400;2022-09-01T01:02:44;40.08;;;29.70;;
48006;SDS011;33771;48.180;11.400;2022-09-01T01:05:10;38.67;;;29.90;;
48006;SDS011;33771;48.180;11.400;2022-09-01T01:07:36;39.60;;;31.92;;
48006;SDS011;33771;48.180;11.400;2022-09-01T01:10:09;37.30;;;29.52;;
48006;SDS011;33771;48.180;11.400;2022-09-01T01:12:37;39.38;;;31.55;;
48006;SDS011;33771;48.180;11.400;2022-09-01T01:15:05;36.70;;;29.23;;
48006;SDS011;33771;48.180;11.400;2022-09-01T01:17:32;36.97;;;29.90;;
48006;SDS011;33771;48.180;11.400;2022-09-01T01:19:57;38.55;;;30.20;;
48006;SDS011;33771;48.180;11.400;2022-09-01T01:25:26;35.55;;;30.20;;
48006;SDS011;33771;48.180;11.400;2022-09-01T01:30:44;41.90;;;32.75;;
48006;SDS011;33771;48.180;11.400;2022-09-01T01:33:19;43.88;;;33.65;;
48006;SDS011;33771;48.180;11.400;2022-09-01T01:35:49;42.47;;;33.75;;
48006;SDS011;33771;48.180;11.400;2022-09-01T01:38:21;42.35;;;32.88;;
48006;SDS011;33771;48.180;11.400;2022-09-01T01:40:47;40.05;;;31.92;;
48006;SDS011;33771;48.180;11.400;2022-09-01T01:43:14;46.08;;;35.28;;
48006;SDS011;33771;48.180;11.400;2022-09-01T01:45:44;43.83;;;34.88;;
48006;SDS011;33771;48.180;11.400;2022-09-01T01:48:11;45.33;;;33.83;;
48006;SDS011;33771;48.180;11.400;2022-09-01T01:50:37;44.50;;;35.85;;
48006;SDS011;33771;48.180;11.400;2022-09-01T01:53:04;44.10;;;34.17;;
48006;SDS011;33771;48.180;11.400;2022-09-01T01:55:32;46.47;;;35.15;;
48006;SDS011;33771;48.180;11.400;2022-09-01T01:57:58;46.15;;;35.92;;
48006;SDS011;33771;48.180;11.400;2022-09-01T02:00:28;45.25;;;34.80;;
48006;SDS011;33771;48.180;11.400;2022-09-01T02:02:58;43.20;;;34.63;;
48006;SDS011;33771;48.180;11.400;2022-09-01T02:05:28;44.92;;;34.00;;
48006;SDS011;33771;48.180;11.400;2022-09-01T02:07:59;46.38;;;34.97;;
48006;SDS011;33771;48.180;11.400;2022-09-01T02:10:29;46.63;;;35.17;;
48006;SDS011;33771;48.180;11.400;2022-09-01T02:12:58;45.55;;;36.38;;
48006;SDS011;33771;48.180;11.400;2022-09-01T02:15:30;48.38;;;36.00;;
48006;SDS011;33771;48.180;11.400;2022-09-01T02:17:59;52.55;;;38.97;;
48006;SDS011;33771;48.180;11.400;2022-09-01T02:20:25;46.58;;;36.72;;
48006;SDS011;33771;48.180;11.400;2022-09-01T02:22:53;47.83;;;35.58;;
48006;SDS011;33771;48.180;11.400;2022-09-01T02:25:20;48.20;;;36.60;;
48006;SDS011;33771;48.180;11.400;2022-09-01T02:27:46;48.40;;;37.28;;
48006;SDS011;33771;48.180;11.400;2022-09-01T02:30:17;43.10;;;35.55;;
48006;SDS011;33771;48.180;11.400;2022-09-01T02:32:43;46.28;;;34.60;;
48006;SDS011;33771;48.180;11.400;2022-09-01T02:35:08;46.15;;;35.35;;
48006;SDS011;33771;48.180;11.400;2022-09-01T02:37:36;40.75;;;33.65;;
48006;SDS011;33771;48.180;11.400;2022-09-01T02:40:03;42.80;;;34.35;;
48006;SDS011;33771;48.180;11.400;2022-09-01T02:42:30;37.72;;;31.40;;
48006;SDS011;33771;48.180;11.400;2022-09-01T02:44:56;39.90;;;32.00;;
48006;SDS011;33771;48.180;11.400;2022-09-01T02:47:23;34.67;;;29.60;;
48006;SDS011;33771;48.180;11.400;2022-09-01T02:49:51;37.40;;;30.85;;
48006;SDS011;33771;48.180;11.400;2022-09-01T02:52:18;36.05;;;30.63;;
48006;SDS011;33771;48.180;11.400;2022-09-01T02:54:46;37.92;;;29.58;;
48006;SDS011;33771;48.180;11.400;2022-09-01T02:57:14;38.22;;;30.45;;
48006;SDS011;33771;48.180;11.400;2022-09-01T02:59:40;38.15;;;30.58;;
48006;SDS011;33771;48.180;11.400;2022-09-01T03:02:06;35.47;;;29.70;;
48006;SDS011;33771;48.180;11.400;2022-09-01T03:04:33;35.72;;;29.77;;
48006;SDS011;33771;48.180;11.400;2022-09-01T03:07:02;37.90;;;31.33;;
48006;SDS011;33771;48.180;11.400;2022-09-01T03:09:29;37.20;;;31.15;;
48006;SDS011;33771;48.180;11.400;2022-09-01T03:11:56;37.22;;;31.15;;
48006;SDS011;33771;48.180;11.400;2022-09-01T03:14:22;37.78;;;30.55;;
48006;SDS011;33771;48.180;11.400;2022-09-01T03:16:49;38.17;;;31.63;;
48006;SDS011;33771;48.180;11.400;2022-09-01T03:19:15;37.75;;;31.63;;
48006;SDS011;33771;48.180;11.400;2022-09-01T03:21:43;41.40;;;32.30;;
48006;SDS011;33771;48.180;11.400;2022-09-01T03:24:09;50.17;;;33.70;;
48006;SDS011;33771;48.180;11.400;2022-09-01T03:26:39;40.42;;;32.47;;
48006;SDS011;33771;48.180;11.400;2022-09-01T03:29:05;40.08;;;32.20;;
48006;SDS011;33771;48.180;11.400;2022-09-01T03:31:32;39.58;;;33.40;;
48006;SDS011;33771;48.180;11.400;2022-09-01T03:33:58;40.28;;;31.75;;
48006;SDS011;33771;48.180;11.400;2022-09-01T03:36:25;37.95;;;31.52;;
48006;SDS011;33771;48.180;11.400;2022-09-01T03:38:52;40.53;;;32.75;;
48006;SDS011;33771;48.180;11.400;2022-09-01T03:41:20;38.97;;;32.13;;
48006;SDS011;33771;48.180;11.400;2022-09-01T03:43:48;36.55;;;30.00;;
48006;SDS011;33771;48.180;11.400;2022-09-01T03:46:16;41.08;;;31.33;;
48006;SDS011;33771;48.180;11.400;2022-09-01T03:48:50;36.00;;;30.35;;
48006;SDS011;33771;48.180;11.400;2022-09-01T03:51:19;37.60;;;30.98;;
48006;SDS011;33771;48.180;11.400;2022-09-01T03:53:46;37.83;;;31.23;;
48006;SDS011;33771;48.180;11.400;2022-09-01T03:56:12;39.30;;;29.45;;
48006;SDS011;33771;48.180;11.400;2022-09-01T03:58:39;42.80;;;31.13;;
48006;SDS011;33771;48.180;11.400;2022-09-01T04:01:09;34.88;;;28.15;;
48006;SDS011;33771;48.180;11.400;2022-09-01T04:03:35;32.72;;;27.70;;
48006;SDS011;33771;48.180;11.400;2022-09-01T04:06:03;38.42;;;28.60;;
48006;SDS011;33771;48.180;11.400;2022-09-01T04:08:31;35.67;;;28.90;;
48006;SDS011;33771;48.180;11.400;2022-09-01T04:10:58;36.95;;;29.45;;
48006;SDS011;33771;48.180;11.400;2022-09-01T04:13:28;33.05;;;28.52;;
48006;SDS011;33771;48.180;11.400;2022-09-01T04:15:58;34.60;;;29.10;;
48006;SDS011;33771;48.180;11.400;2022-09-01T04:18:24;36.30;;;30.10;;
48006;SDS011;33771;48.180;11.400;2022-09-01T04:23:27;39.72;;;30.85;;
48006;SDS011;33771;48.180;11.400;2022-09-01T04:25:55;38.78;;;30.80;;
48006;SDS011;33771;48.180;11.400;2022-09-01T04:28:39;39.63;;;30.75;;
48006;SDS011;33771;48.180;11.400;2022-09-01T04:31:08;39.28;;;31.55;;
48006;SDS011;33771;48.180;11.400;2022-09-01T04:33:43;37.20;;;31.27;;
48006;SDS011;33771;48.180;11.400;2022-09-01T04:36:27;40.88;;;32.67;;
48006;SDS011;33771;48.180;11.400;2022-09-01T04:38:57;40.70;;;31.77;;
48006;SDS011;33771;48.180;11.400;2022-09-01T04:41:28;42.50;;;32.83;;
48006;SDS011;33771;48.180;11.400;2022-09-01T04:43:56;42.30;;;33.75;;
48006;SDS011;33771;48.180;11.400;2022-09-01T04:46:24;43.05;;;35.38;;
48006;SDS011;33771;48.180;11.400;2022-09-01T04:48:52;42.15;;;34.13;;
48006;SDS011;33771;48.180;11.400;2022-09-01T04:51:19;43.88;;;34.70;;
48006;SDS011;33771;48.180;11.400;2022-09-01T04:53:46;47.78;;;37.80;;
48006;SDS011;33771;48.180;11.400;2022-09-01T04:56:16;49.17;;;36.92;;
48006;SDS011;33771;48.180;11.400;2022-09-01T04:58:44;52.45;;;40.22;;
48006;SDS011;33771;48.180;11.400;2022-09-01T05:01:23;50.63;;;37.95;;
48006;SDS011;33771;48.180;11.400;2022-09-01T05:03:50;54.42;;;38.53;;
48006;SDS011;33771;48.180;11.400;2022-09-01T05:06:25;50.22;;;38.97;;
48006;SDS011;33771;48.180;11.400;2022-09-01T05:08:51;46.90;;;38.05;;
48006;SDS011;33771;48.180;11.400;2022-09-01T05:11:17;50.53;;;39.53;;
48006;SDS011;33771;48.180;11.400;2022-09-01T05:13:44;45.47;;;37.33;;
48006;SDS011;33771;48.180;11.400;2022-09-01T05:16:11;49.17;;;38.88;;
48006;SDS011;33771;48.180;11.400;2022-09-01T05:18:40;46.88;;;37.55;;
48006;SDS011;33771;48.180;11.400;2022-09-01T05:21:11;46.05;;;37.10;;
48006;SDS011;33771;48.180;11.400;2022-09-01T05:23:40;52.30;;;41.42;;
48006;SDS011;33771;48.180;11.400;2022-09-01T05:26:16;48.97;;;37.60;;
48006;SDS011;33771;48.180;11.400;2022-09-01T05:28:44;47.42;;;37.60;;
48006;SDS011;33771;48.180;11.400;2022-09-01T05:31:12;49.13;;;39.28;;
48006;SDS011;33771;48.180;11.400;2022-09-01T05:33:38;51.97;;;40.40;;
48006;SDS011;33771;48.180;11.400;2022-09-01T05:36:10;45.72;;;36.55;;
48006;SDS011;33771;48.180;11.400;2022-09-01T05:38:37;47.85;;;37.28;;
48006;SDS011;33771;48.180;11.400;2022-09-01T05:41:07;47.72;;;37.25;;
48006;SDS011;33771;48.180;11.400;2022-09-01T05:43:35;48.38;;;37.05;;
48006;SDS011;33771;48.180;11.400;2022-09-01T05:46:01;41.63;;;34.13;;
48006;SDS011;33771;48.180;11.400;2022-09-01T05:48:32;38.97;;;32.60;;
48006;SDS011;33771;48.180;11.400;2022-09-01T05:51:04;37.78;;;31.80;;
48006;SDS011;33771;48.180;11.400;2022-09-01T05:53:32;40.33;;;32.67;;
48006;SDS011;33771;48.180;11.400;2022-09-01T05:55:58;38.42;;;31.75;;
48006;SDS011;33771;48.180;11.400;2022-09-01T05:58:31;35.33;;;29.75;;
48006;SDS011;33771;48.180;11.400;2022-09-01T06:00:59;36.80;;;30.88;;
48006;SDS011;33771;48.180;11.400;2022-09-01T06:03:26;35.42;;;28.42;;
48006;SDS011;33771;48.180;11.400;2022-09-01T06:05:52;32.28;;;28.00;;
48006;SDS011;33771;48.180;11.400;2022-09-01T06:08:19;36.00;;;29.58;;
48006;SDS011;33771;48.180;11.400;2022-09-01T06:10:48;28.67;;;24.15;;
48006;SDS011;33771;48.180;11.400;2022-09-01T06:13:14;29.75;;;26.02;;
48006;SDS011;33771;48.180;11.400;2022-09-01T06:15:41;30.88;;;25.95;;
48006;SDS011;33771;48.180;11.400;2022-09-01T06:18:11;26.65;;;23.08;;
48006;SDS011;33771;48.180;11.400;2022-09-01T06:20:37;28.90;;;22.67;;
48006;SDS011;33771;48.180;11.400;2022-09-01T06:23:04;27.35;;;23.83;;
48006;SDS011;33771;48.180;11.400;2022-09-01T06:25:30;26.23;;;22.60;;
48006;SDS011;33771;48.180;11.400;2022-09-01T06:27:56;25.52;;;21.63;;
48006;SDS011;33771;48.180;11.400;2022-09-01T06:30:23;25.05;;;22.42;;
48006;SDS011;33771;48.180;11.400;2022-09-01T06:32:50;25.65;;;21.48;;
48006;SDS011;33771;48.180;11.400;2022-09-01T06:35:17;27.45;;;20.38;;
48006;SDS011;33771;48.180;11.400;2022-09-01T06:37:44;24.08;;;21.15;;
48006;SDS011;33771;48.180;11.400;2022-09-01T06:40:11;24.80;;;22.10;;
48006;SDS011;33771;48.180;11.400;2022-09-01T06:42:48;25.77;;;21.13;;
48006;SDS011;33771;48.180;11.400;2022-09-01T06:45:15;25.13;;;20.50;;
48006;SDS011;33771;48.180;11.400;2022-09-01T06:47:43;22.08;;;19.50;;
48006;SDS011;33771;48.180;11.400;2022-09-01T06:50:10;27.65;;;21.23;;
48006;SDS011;33771;48.180;11.400;2022-09-01T06:52:38;27.27;;;20.63;;
48006;SDS011;33771;48.180;11.400;2022-09-01T06:55:06;20.92;;;18.45;;
48006;SDS011;33771;48.180;11.400;2022-09-01T06:57:37;20.00;;;17.77;;
48006;SDS011;33771;48.180;11.400;2022-09-01T07:00:04;20.70;;;16.25;;
48006;SDS011;33771;48.180;11.400;2022-09-01T07:02:41;20.15;;;15.27;;
48006;SDS011;33771;48.180;11.400;2022-09-01T07:05:10;19.23;;;15.13;;
48006;SDS011;33771;48.180;11.400;2022-09-01T07:07:41;16.35;;;14.40;;
48006;SDS011;33771;48.180;11.400;2022-09-01T07:10:07;19.17;;;15.63;;
48006;SDS011;33771;48.180;11.400;2022-09-01T07:12:33;18.98;;;15.70;;
48006;SDS011;33771;48.180;11.400;2022-09-01T07:14:59;17.08;;;15.13;;
48006;SDS011;33771;48.180;11.400;2022-09-01T07:17:25;16.95;;;14.63;;
48006;SDS011;33771;48.180;11.400;2022-09-01T07:19:50;21.10;;;14.10;;
48006;SDS011;33771;48.180;11.400;2022-09-01T07:22:17;16.95;;;14.73;;
48006;SDS011;33771;48.180;11.400;2022-09-01T07:24:43;18.23;;;14.40;;
48006;SDS011;33771;48.180;11.400;2022-09-01T07:27:10;17.02;;;15.25;;
48006;SDS011;33771;48.180;11.400;2022-09-01T07:29:36;18.17;;;15.98;;
48006;SDS011;33771;48.180;11.400;2022-09-01T07:32:03;25.73;;;16.77;;
48006;SDS011;33771;48.180;11.400;2022-09-01T07:34:29;20.48;;;17.20;;
48006;SDS011;33771;48.180;11.400;2022-09-01T07:36:55;19.55;;;16.45;;
48006;SDS011;33771;48.180;11.400;2022-09-01T07:39:23;18.00;;;15.63;;
48006;SDS011;33771;48.180;11.400;2022-09-01T07:41:49;18.77;;;15.35;;
48006;SDS011;33771;48.180;11.400;2022-09-01T07:44:15;17.80;;;15.07;;
48006;SDS011;33771;48.180;11.400;2022-09-01T07:46:41;17.85;;;16.05;;
48006;SDS011;33771;48.180;11.400;2022-09-01T07:49:07;18.63;;;14.25;;
48006;SDS011;33771;48.180;11.400;2022-09-01T07:51:33;16.10;;;14.50;;
48006;SDS011;33771;48.180;11.400;2022-09-01T07:54:00;16.58;;;14.45;;
48006;SDS011;33771;48.180;11.400;2022-09-01T07:56:26;17.85;;;13.57;;
48006;SDS011;33771;48.180;11.400;2022-09-01T07:58:54;15.48;;;13.50;;
48006;SDS011;33771;48.180;11.400;2022-09-01T08:01:22;17.02;;;13.80;;
48006;SDS011;33771;48.180;11.400;2022-09-01T08:03:50;13.35;;;12.05;;
48006;SDS011;33771;48.180;11.400;2022-09-01T08:06:19;13.88;;;12.43;;
48006;SDS011;33771;48.180;11.400;2022-09-01T08:08:47;15.23;;;12.65;;
48006;SDS011;33771;48.180;11.400;2022-09-01T08:11:15;14.02;;;12.20;;
48006;SDS011;33771;48.180;11.400;2022-09-01T08:13:46;13.98;;;12.27;;
48006;SDS011;33771;48.180;11.400;2022-09-01T08:16:12;13.63;;;11.70;;
48006;SDS011;33771;48.180;11.400;2022-09-01T08:18:38;14.05;;;12.65;;
48006;SDS011;33771;48.180;11.400;2022-09-01T08:21:05;16.88;;;12.70;;
48006;SDS011;33771;48.180;11.400;2022-09-01T08:23:35;14.75;;;13.05;;
48006;SDS011;33771;48.180;11.400;2022-09-01T08:26:10;17.23;;;12.90;;
48006;SDS011;33771;48.180;11.400;2022-09-01T08:28:38;16.58;;;12.63;;
48006;SDS011;33771;48.180;11.400;2022-09-01T08:31:05;13.98;;;11.60;;
48006;SDS011;33771;48.180;11.400;2022-09-01T08:33:36;12.90;;;11.52;;
48006;SDS011;33771;48.180;11.400;2022-09-01T08:36:02;12.35;;;10.30;;
48006;SDS011;33771;48.180;11.400;2022-09-01T08:38:30;13.98;;;10.20;;
48006;SDS011;33771;48.180;11.400;2022-09-01T08:40:56;10.10;;;8.98;;
48006;SDS011;33771;48.180;11.400;2022-09-01T08:46:12;10.93;;;8.68;;
48006;SDS011;33771;48.180;11.400;2022-09-01T08:48:59;10.82;;;8.65;;
48006;SDS011;33771;48.180;11.400;2022-09-01T08:51:33;9.43;;;8.43;;
48006;SDS011;33771;48.180;11.400;2022-09-01T08:56:45;9.35;;;8.40;;
48006;SDS011;33771;48.180;11.400;2022-09-01T08:59:13;10.65;;;8.75;;
48006;SDS011;33771;48.180;11.400;2022-09-01T09:01:42;11.80;;;8.63;;
48006;SDS011;33771;48.180;11.400;2022-09-01T09:07:12;10.98;;;8.68;;
48006;SDS011;33771;48.180;11.400;2022-09-01T09:09:54;9.82;;;8.35;;
48006;SDS011;33771;48.180;11.400;2022-09-01T09:18:39;13.30;;;8.88;;
48006;SDS011;33771;48.180;11.400;2022-09-01T09:21:26;12.98;;;8.98;;
48006;SDS011;33771;48.180;11.400;2022-09-01T09:26:39;12.45;;;8.88;;
48006;SDS011;33771;48.180;11.400;2022-09-01T09:29:05;11.57;;;7.70;;
48006;SDS011;33771;48.180;11.400;2022-09-01T09:31:35;9.90;;;8.02;;
48006;SDS011;33771;48.180;11.400;2022-09-01T09:36:51;11.18;;;6.93;;
48006;SDS011;33771;48.180;11.400;2022-09-01T09:39:17;9.73;;;7.43;;
48006;SDS011;33771;48.180;11.400;2022-09-01T09:41:49;7.78;;;6.68;;
48006;SDS011;33771;48.180;11.400;2022-09-01T09:44:38;11.27;;;6.78;;
48006;SDS011;33771;48.180;11.400;2022-09-01T09:47:07;10.43;;;6.07;;
48006;SDS011;33771;48.180;11.400;2022-09-01T09:49:35;8.93;;;6.18;;
48006;SDS011;33771;48.180;11.400;2022-09-01T09:54:30;8.82;;;6.38;;
48006;SDS011;33771;48.180;11.400;2022-09-01T10:02:16;7.50;;;5.82;;
48006;SDS011;33771;48.180;11.400;2022-09-01T10:04:51;10.73;;;6.18;;
48006;SDS011;33771;48.180;11.400;2022-09-01T10:10:06;10.60;;;6.68;;
48006;SDS011;33771;48.180;11.400;2022-09-01T10:12:50;10.68;;;6.30;;
48006;SDS011;33771;48.180;11.400;2022-09-01T10:15:17;6.72;;;5.60;;
48006;SDS011;33771;48.180;11.400;2022-09-01T10:17:45;7.82;;;5.53;;
48006;SDS011;33771;48.180;11.400;2022-09-01T10:20:22;10.10;;;5.40;;
48006;SDS011;33771;48.180;11.400;2022-09-01T10:22:49;9.85;;;6.47;;
48006;SDS011;33771;48.180;11.400;2022-09-01T10:25:17;7.32;;;6.07;;
48006;SDS011;33771;48.180;11.400;2022-09-01T10:27:54;6.80;;;5.15;;
48006;SDS011;33771;48.180;11.400;2022-09-01T10:30:23;6.10;;;4.87;;
48006;SDS011;33771;48.180;11.400;2022-09-01T10:32:50;5.70;;;4.45;;
48006;SDS011;33771;48.180;11.400;2022-09-01T10:35:31;5.75;;;4.10;;
48006;SDS011;33771;48.180;11.400;2022-09-01T10:38:04;6.07;;;4.15;;
48006;SDS011;33771;48.180;11.400;2022-09-01T10:43:21;5.55;;;4.18;;
48006;SDS011;33771;48.180;11.400;2022-09-01T10:45:51;5.07;;;3.70;;
48006;SDS011;33771;48.180;11.400;2022-09-01T10:50:48;3.10;;;2.70;;
48006;SDS011;33771;48.180;11.400;2022-09-01T10:56:10;4.28;;;3.17;;
48006;SDS011;33771;48.180;11.400;2022-09-01T11:04:04;5.13;;;2.88;;
48006;SDS011;33771;48.180;11.400;2022-09-01T11:09:06;4.88;;;2.90;;
48006;SDS011;33771;48.180;11.400;2022-09-01T11:14:25;6.47;;;2.83;;
48006;SDS011;33771;48.180;11.400;2022-09-01T11:19:40;4.35;;;2.22;;
48006;SDS011;33771;48.180;11.400;2022-09-01T11:25:09;3.72;;;2.30;;
48006;SDS011;33771;48.180;11.400;2022-09-01T11:30:17;3.83;;;2.28;;
48006;SDS011;33771;48.180;11.400;2022-09-01T11:33:21;3.60;;;2.10;;
48006;SDS011;33771;48.180;11.400;2022-09-01T11:35:57;4.03;;;1.75;;
48006;SDS011;33771;48.180;11.400;2022-09-01T11:38:31;2.75;;;1.80;;
48006;SDS011;33771;48.180;11.400;2022-09-01T11:41:07;4.70;;;2.30;;
48006;SDS011;33771;48.180;11.400;2022-09-01T11:43:33;2.92;;;2.10;;
48006;SDS011;33771;48.180;11.400;2022-09-01T11:48:46;4.65;;;1.80;;
48006;SDS011;33771;48.180;11.400;2022-09-01T11:51:12;4.35;;;2.30;;
48006;SDS011;33771;48.180;11.400;2022-09-01T11:53:39;4.10;;;2.20;;
48006;SDS011;33771;48.180;11.400;2022-09-01T11:56:23;3.45;;;2.30;;
48006;SDS011;33771;48.180;11.400;2022-09-01T11:58:50;2.67;;;2.00;;
48006;SDS011;33771;48.180;11.400;2022-09-01T12:01:17;4.80;;;2.25;;
48006;SDS011;33771;48.180;11.400;2022-09-01T12:03:46;3.13;;;1.92;;
48006;SDS011;33771;48.180;11.400;2022-09-01T12:06:23;5.53;;;2.50;;
48006;SDS011;33771;48.180;11.400;2022-09-01T12:09:03;2.75;;;2.22;;
48006;SDS011;33771;48.180;11.400;2022-09-01T12:11:31;3.75;;;2.20;;
48006;SDS011;33771;48.180;11.400;2022-09-01T12:13:59;2.63;;;2.10;;
48006;SDS011;33771;48.180;11.400;2022-09-01T12:16:32;6.07;;;2.00;;
48006;SDS011;33771;48.180;11.400;2022-09-01T12:19:00;3.53;;;2.33;;
48006;SDS011;33771;48.180;11.400;2022-09-01T12:24:14;3.20;;;2.20;;
48006;SDS011;33771;48.180;11.400;2022-09-01T12:26:42;4.00;;;2.10;;
48006;SDS011;33771;48.180;11.400;2022-09-01T12:29:10;3.70;;;1.83;;
48006;SDS011;33771;48.180;11.400;2022-09-01T12:31:41;3.25;;;2.17;;
48006;SDS011;33771;48.180;11.400;2022-09-01T12:37:10;2.50;;;1.83;;
48006;SDS011;33771;48.180;11.400;2022-09-01T12:39:43;6.90;;;2.35;;
48006;SDS011;33771;48.180;11.400;2022-09-01T12:44:44;6.35;;;3.65;;
48006;SDS011;33771;48.180;11.400;2022-09-01T12:50:06;4.60;;;2.90;;
48006;SDS011;33771;48.180;11.400;2022-09-01T12:52:52;5.05;;;2.90;;
48006;SDS011;33771;48.180;11.400;2022-09-01T12:55:23;4.22;;;3.10;;
48006;SDS011;33771;48.180;11.400;2022-09-01T12:57:58;4.47;;;2.78;;
48006;SDS011;33771;48.180;11.400;2022-09-01T13:05:19;4.35;;;2.60;;
48006;SDS011;33771;48.180;11.400;2022-09-01T13:07:45;4.65;;;2.67;;
48006;SDS011;33771;48.180;11.400;2022-09-01T13:10:11;3.67;;;2.00;;
48006;SDS011;33771;48.180;11.400;2022-09-01T13:12:43;4.85;;;2.20;;
48006;SDS011;33771;48.180;11.400;2022-09-01T13:15:09;3.38;;;2.15;;
48006;SDS011;33771;48.180;11.400;2022-09-01T13:17:35;3.30;;;2.10;;
48006;SDS011;33771;48.180;11.400;2022-09-01T13:20:02;3.67;;;1.90;;
48006;SDS011;33771;48.180;11.400;2022-09-01T13:22:29;5.20;;;1.92;;
48006;SDS011;33771;48.180;11.400;2022-09-01T13:24:54;3.70;;;2.00;;
48006;SDS011;33771;48.180;11.400;2022-09-01T13:27:20;7.20;;;2.72;;
48006;SDS011;33771;48.180;11.400;2022-09-01T13:29:46;4.47;;;2.50;;
48006;SDS011;33771;48.180;11.400;2022-09-01T13:32:13;6.53;;;2.67;;
48006;SDS011;33771;48.180;11.400;2022-09-01T13:34:39;6.45;;;2.58;;
48006;SDS011;33771;48.180;11.400;2022-09-01T13:37:05;4.70;;;2.47;;
48006;SDS011;33771;48.180;11.400;2022-09-01T13:39:30;3.58;;;2.40;;
48006;SDS011;33771;48.180;11.400;2022-09-01T13:41:56;6.25;;;2.70;;
48006;SDS011;33771;48.180;11.400;2022-09-01T13:44:22;3.75;;;2.30;;
48006;SDS011;33771;48.180;11.400;2022-09-01T13:46:47;6.13;;;2.20;;
48006;SDS011;33771;48.180;11.400;2022-09-01T13:49:13;3.97;;;2.20;;
48006;SDS011;33771;48.180;11.400;2022-09-01T13:51:38;5.50;;;2.05;;
48006;SDS011;33771;48.180;11.400;2022-09-01T13:54:04;5.40;;;1.80;;
48006;SDS011;33771;48.180;11.400;2022-09-01T13:56:30;3.33;;;1.80;;
48006;SDS011;33771;48.180;11.400;2022-09-01T13:58:55;4.50;;;2.08;;
48006;SDS011;33771;48.180;11.400;2022-09-01T14:01:21;4.32;;;2.25;;
48006;SDS011;33771;48.180;11.400;2022-09-01T14:03:47;4.28;;;1.70;;
48006;SDS011;33771;48.180;11.400;2022-09-01T14:06:13;4.10;;;2.15;;
48006;SDS011;33771;48.180;11.400;2022-09-01T14:08:39;2.60;;;1.85;;
48006;SDS011;33771;48.180;11.400;2022-09-01T14:11:05;3.22;;;2.00;;
48006;SDS011;33771;48.180;11.400;2022-09-01T14:13:31;4.53;;;2.22;;
48006;SDS011;33771;48.180;11.400;2022-09-01T14:15:58;5.15;;;2.17;;
48006;SDS011;33771;48.180;11.400;2022-09-01T14:18:24;4.53;;;2.60;;
48006;SDS011;33771;48.180;11.400;2022-09-01T14:20:56;3.00;;;2.03;;
48006;SDS011;33771;48.180;11.400;2022-09-01T14:23:25;3.22;;;2.13;;
48006;SDS011;33771;48.180;11.400;2022-09-01T14:25:51;3.58;;;2.40;;
48006;SDS011;33771;48.180;11.400;2022-09-01T14:28:16;7.18;;;1.85;;
48006;SDS011;33771;48.180;11.400;2022-09-01T14:30:43;7.28;;;2.10;;
48006;SDS011;33771;48.180;11.400;2022-09-01T14:33:09;2.53;;;1.90;;
48006;SDS011;33771;48.180;11.400;2022-09-01T14:35:39;3.97;;;2.00;;
48006;SDS011;33771;48.180;11.400;2022-09-01T14:38:07;4.20;;;2.00;;
48006;SDS011;33771;48.180;11.400;2022-09-01T14:40:35;4.05;;;2.00;;
48006;SDS011;33771;48.180;11.400;2022-09-01T14:43:03;4.65;;;2.15;;
48006;SDS011;33771;48.180;11.400;2022-09-01T14:45:30;5.20;;;2.40;;
48006;SDS011;33771;48.180;11.400;2022-09-01T14:47:56;4.15;;;2.40;;
48006;SDS011;33771;48.180;11.400;2022-09-01T14:50:24;2.92;;;1.83;;
48006;SDS011;33771;48.180;11.400;2022-09-01T14:52:53;4.88;;;2.10;;
48006;SDS011;33771;48.180;11.400;2022-09-01T14:55:21;3.00;;;1.90;;
48006;SDS011;33771;48.180;11.400;2022-09-01T14:57:49;2.55;;;1.60;;
48006;SDS011;33771;48.180;11.400;2022-09-01T15:00:15;2.75;;;1.65;;
48006;SDS011;33771;48.180;11.400;2022-09-01T15:02:41;3.08;;;2.03;;
48006;SDS011;33771;48.180;11.400;2022-09-01T15:05:08;5.97;;;2.30;;
48006;SDS011;33771;48.180;11.400;2022-09-01T15:07:36;4.82;;;1.75;;
48006;SDS011;33771;48.180;11.400;2022-09-01T15:10:03;3.03;;;2.00;;
48006;SDS011;33771;48.180;11.400;2022-09-01T15:12:31;4.47;;;1.70;;
48006;SDS011;33771;48.180;11.400;2022-09-01T15:14:57;4.03;;;1.90;;
48006;SDS011;33771;48.180;11.400;2022-09-01T15:17:24;2.85;;;1.80;;
48006;SDS011;33771;48.180;11.400;2022-09-01T15:19:51;2.60;;;1.70;;
48006;SDS011;33771;48.180;11.400;2022-09-01T15:22:16;3.95;;;1.60;;
48006;SDS011;33771;48.180;11.400;2022-09-01T15:24:42;4.40;;;2.30;;
48006;SDS011;33771;48.180;11.400;2022-09-01T15:27:08;3.85;;;1.88;;
48006;SDS011;33771;48.180;11.400;2022-09-01T15:29:35;2.55;;;1.70;;
48006;SDS011;33771;48.180;11.400;2022-09-01T15:32:12;2.95;;;1.60;;
48006;SDS011;33771;48.180;11.400;2022-09-01T15:34:40;2.17;;;1.52;;
48006;SDS011;33771;48.180;11.400;2022-09-01T15:37:05;2.92;;;1.63;;
48006;SDS011;33771;48.180;11.400;2022-09-01T15:39:31;3.55;;;1.45;;
48006;SDS011;33771;48.180;11.400;2022-09-01T15:41:57;3.35;;;1.60;;
48006;SDS011;33771;48.180;11.400;2022-09-01T15:44:22;3.78;;;1.90;;
48006;SDS011;33771;48.180;11.400;2022-09-01T15:46:48;3.00;;;1.60;;
48006;SDS011;33771;48.180;11.400;2022-09-01T15:49:14;5.15;;;1.60;;
48006;SDS011;33771;48.180;11.400;2022-09-01T15:51:42;3.47;;;1.52;;